createdAt,value
2023-03-15T00:00:42.556Z,82.28
2023-03-15T00:01:46.846Z,82.40
2023-03-15T00:02:48.658Z,82.55
2023-03-15T00:03:54.962Z,82.32
2023-03-15T00:04:56.801Z,82.32
2023-03-15T00:06:02.133Z,82.30
2023-03-15T00:07:05.073Z,82.63
2023-03-15T00:08:06.864Z,82.64
2023-03-15T00:09:10.004Z,81.99
2023-03-15T00:10:11.931Z,82.00
2023-03-15T00:11:15.303Z,81.89
2023-03-15T00:12:17.077Z,82.11
2023-03-15T00:13:19.877Z,81.77
2023-03-15T00:14:21.959Z,81.70
2023-03-15T00:15:24.708Z,81.70
2023-03-15T00:16:27.557Z,81.93
2023-03-15T00:17:30.320Z,81.21
2023-03-15T00:18:32.265Z,80.85
2023-03-15T00:19:36.403Z,80.23
2023-03-15T00:20:38.260Z,80.17
2023-03-15T00:21:43.286Z,80.24
2023-03-15T00:22:45.331Z,79.97
2023-03-15T00:23:48.177Z,79.90
2023-03-15T00:24:50.003Z,80.10
2023-03-15T00:25:53.708Z,80.05
2023-03-15T00:26:55.569Z,79.54
2023-03-15T00:27:58.313Z,79.39
2023-03-15T00:29:00.219Z,80.07
2023-03-15T00:30:03.194Z,79.28
2023-03-15T00:31:09.430Z,79.51
2023-03-15T00:32:12.255Z,79.50
2023-03-15T00:33:14.731Z,79.45
2023-03-15T00:34:18.859Z,78.98
2023-03-15T00:35:23.963Z,78.77
2023-03-15T00:36:27.522Z,78.89
2023-03-15T00:37:31.391Z,78.44
2023-03-15T00:38:36.710Z,78.89
2023-03-15T00:39:40.524Z,78.47
2023-03-15T00:40:44.488Z,78.39
2023-03-15T00:41:46.900Z,78.57
2023-03-15T00:42:50.984Z,78.73
2023-03-15T00:43:52.850Z,78.58
2023-03-15T00:44:56.440Z,78.64
2023-03-15T00:45:58.527Z,78.50
2023-03-15T00:47:01.263Z,78.74
2023-03-15T00:48:03.222Z,78.57
2023-03-15T00:49:05.993Z,78.87
2023-03-15T00:50:08.625Z,78.91
2023-03-15T00:51:14.945Z,78.79
2023-03-15T00:52:16.797Z,78.84
2023-03-15T00:53:22.562Z,78.70
2023-03-15T00:54:24.868Z,78.61
2023-03-15T00:55:28.056Z,78.63
2023-03-15T00:56:30.779Z,78.81
2023-03-15T00:57:35.308Z,78.68
2023-03-15T00:58:37.588Z,78.51
2023-03-15T00:59:40.613Z,78.56
2023-03-15T01:01:01.380Z,78.33
2023-03-15T01:02:05.013Z,78.38
2023-03-15T01:03:07.059Z,78.41
2023-03-15T01:04:10.311Z,78.35
2023-03-15T01:05:14.208Z,78.16
2023-03-15T01:06:20.708Z,78.07
2023-03-15T01:07:23.063Z,78.06
2023-03-15T01:08:26.313Z,77.92
2023-03-15T01:09:28.407Z,78.07
2023-03-15T01:10:31.421Z,78.24
2023-03-15T01:11:34.454Z,78.08
2023-03-15T01:12:36.510Z,77.95
2023-03-15T01:13:39.883Z,77.84
2023-03-15T01:14:42.064Z,77.78
2023-03-15T01:15:47.444Z,77.55
2023-03-15T01:16:49.759Z,77.71
2023-03-15T01:17:53.726Z,77.67
2023-03-15T01:18:55.935Z,77.98
2023-03-15T01:19:59.233Z,77.61
2023-03-15T01:21:01.823Z,77.56
2023-03-15T01:22:06.285Z,77.47
2023-03-15T01:23:08.333Z,77.54
2023-03-15T01:24:14.202Z,77.80
2023-03-15T01:25:20.019Z,77.59
2023-03-15T01:26:23.552Z,77.44
2023-03-15T01:27:25.752Z,77.41
2023-03-15T01:28:30.314Z,77.30
2023-03-15T01:29:32.382Z,77.52
2023-03-15T01:30:36.905Z,77.53
2023-03-15T01:31:39.015Z,77.42
2023-03-15T01:32:42.901Z,77.83
2023-03-15T01:33:45.503Z,77.51
2023-03-15T01:34:48.857Z,77.79
2023-03-15T01:35:59.033Z,77.81
2023-03-15T01:37:02.906Z,77.58
2023-03-15T01:38:13.014Z,77.81
2023-03-15T01:39:16.154Z,77.63
2023-03-15T01:40:21.014Z,77.76
2023-03-15T01:41:26.150Z,77.73
2023-03-15T01:42:29.410Z,77.75
2023-03-15T01:43:33.317Z,77.74
2023-03-15T01:44:53.187Z,78.00
2023-03-15T01:46:16.780Z,77.76
2023-03-15T01:47:20.872Z,77.90
2023-03-15T01:48:26.776Z,77.89
2023-03-15T01:49:31.294Z,77.58
2023-03-15T01:50:35.735Z,77.58
2023-03-15T01:51:41.791Z,77.47
2023-03-15T01:52:45.369Z,77.53
2023-03-15T01:53:56.418Z,77.71
2023-03-15T01:55:02.362Z,77.58
2023-03-15T01:56:06.705Z,77.68
2023-03-15T01:57:14.870Z,77.74
2023-03-15T01:58:16.957Z,77.61
2023-03-15T01:59:24.448Z,77.98
2023-03-15T02:00:45.315Z,77.69
2023-03-15T02:01:54.668Z,77.78
2023-03-15T02:02:59.974Z,77.68
2023-03-15T02:04:09.342Z,77.97
2023-03-15T02:05:19.282Z,77.75
2023-03-15T02:06:23.272Z,77.94
2023-03-15T02:07:34.565Z,77.93
2023-03-15T02:08:41.047Z,78.11
2023-03-15T02:09:52.116Z,77.96
2023-03-15T02:10:58.606Z,78.07
2023-03-15T02:12:03.070Z,78.00
2023-03-15T02:13:05.558Z,77.89
2023-03-15T02:14:09.013Z,77.88
2023-03-15T02:15:13.939Z,77.82
2023-03-15T02:16:17.241Z,77.52
2023-03-15T02:17:30.445Z,77.84
2023-03-15T02:18:35.717Z,77.68
2023-03-15T02:19:45.710Z,77.42
2023-03-15T02:20:52.293Z,77.38
2023-03-15T02:22:03.207Z,77.35
2023-03-15T02:23:06.763Z,77.30
2023-03-15T02:24:20.291Z,77.37
2023-03-15T02:25:28.540Z,77.19
2023-03-15T02:26:35.088Z,77.32
2023-03-15T02:27:38.946Z,77.26
2023-03-15T02:28:42.781Z,76.97
2023-03-15T02:29:44.703Z,77.21
2023-03-15T02:30:48.486Z,77.17
2023-03-15T02:31:50.444Z,77.05
2023-03-15T02:32:53.312Z,77.38
2023-03-15T02:33:55.721Z,77.13
2023-03-15T02:34:59.027Z,77.30
2023-03-15T02:36:09.560Z,77.30
2023-03-15T02:37:13.123Z,77.40
2023-03-15T02:38:15.319Z,77.29
2023-03-15T02:39:21.356Z,77.22
2023-03-15T02:40:25.229Z,77.33
2023-03-15T02:41:31.803Z,77.40
2023-03-15T02:42:35.425Z,77.15
2023-03-15T02:43:39.867Z,77.45
2023-03-15T02:44:44.377Z,77.42
2023-03-15T02:45:49.059Z,77.54
2023-03-15T02:46:52.691Z,77.22
2023-03-15T02:47:57.529Z,77.36
2023-03-15T02:49:00.263Z,77.27
2023-03-15T02:50:04.254Z,77.25
2023-03-15T02:51:06.424Z,76.98
2023-03-15T02:52:09.681Z,77.09
2023-03-15T02:53:12.325Z,77.35
2023-03-15T02:54:15.260Z,76.90
2023-03-15T02:55:19.285Z,77.03
2023-03-15T02:56:22.784Z,77.24
2023-03-15T02:57:25.056Z,77.00
2023-03-15T02:58:32.405Z,77.25
2023-03-15T02:59:38.308Z,77.30
2023-03-15T03:00:41.396Z,77.26
2023-03-15T03:01:45.913Z,76.94
2023-03-15T03:02:49.283Z,77.26
2023-03-15T03:03:51.295Z,77.26
2023-03-15T03:04:55.602Z,77.11
2023-03-15T03:05:57.387Z,76.84
2023-03-15T03:07:00.276Z,76.91
2023-03-15T03:08:09.288Z,76.61
2023-03-15T03:09:13.446Z,76.98
2023-03-15T03:10:19.441Z,76.74
2023-03-15T03:11:27.436Z,76.44
2023-03-15T03:12:31.380Z,76.80
2023-03-15T03:13:34.331Z,76.50
2023-03-15T03:14:40.032Z,76.68
2023-03-15T03:15:58.449Z,76.62
2023-03-15T03:17:03.809Z,76.47
2023-03-15T03:18:07.275Z,75.90
2023-03-15T03:19:09.233Z,76.33
2023-03-15T03:20:14.159Z,76.10
2023-03-15T03:21:20.483Z,76.26
2023-03-15T03:22:24.654Z,75.89
2023-03-15T03:23:27.177Z,76.00
2023-03-15T03:24:29.905Z,75.52
2023-03-15T03:25:32.059Z,75.72
2023-03-15T03:26:35.255Z,75.80
2023-03-15T03:27:37.139Z,76.07
2023-03-15T03:28:41.655Z,75.74
2023-03-15T03:29:45.624Z,75.86
2023-03-15T03:30:49.020Z,75.65
2023-03-15T03:31:51.297Z,75.39
2023-03-15T03:32:56.512Z,75.54
2023-03-15T03:33:58.348Z,75.56
2023-03-15T03:35:01.448Z,75.72
2023-03-15T03:36:04.664Z,75.56
2023-03-15T03:37:08.285Z,75.32
2023-03-15T03:38:29.681Z,75.54
2023-03-15T03:39:34.404Z,75.40
2023-03-15T03:40:37.989Z,75.39
2023-03-15T03:41:41.302Z,75.46
2023-03-15T03:42:46.788Z,75.22
2023-03-15T03:43:49.195Z,75.40
2023-03-15T03:44:54.474Z,75.32
2023-03-15T03:45:57.939Z,75.35
2023-03-15T03:47:00.767Z,74.99
2023-03-15T03:48:04.680Z,75.16
2023-03-15T03:49:10.055Z,75.31
2023-03-15T03:50:12.140Z,75.47
2023-03-15T03:51:15.666Z,75.23
2023-03-15T03:52:17.846Z,74.91
2023-03-15T03:53:21.497Z,75.17
2023-03-15T03:54:24.717Z,75.19
2023-03-15T03:55:27.890Z,75.14
2023-03-15T03:56:29.765Z,75.38
2023-03-15T03:57:33.192Z,75.02
2023-03-15T03:58:35.498Z,75.10
2023-03-15T03:59:50.705Z,75.08
2023-03-15T04:00:54.373Z,75.39
2023-03-15T04:01:59.643Z,75.56
2023-03-15T04:03:02.253Z,75.29
2023-03-15T04:04:06.899Z,75.41
2023-03-15T04:05:09.883Z,75.37
2023-03-15T04:06:12.674Z,75.01
2023-03-15T04:07:17.978Z,75.19
2023-03-15T04:08:21.625Z,75.35
2023-03-15T04:09:24.973Z,75.29
2023-03-15T04:10:29.312Z,75.11
2023-03-15T04:11:31.402Z,75.22
2023-03-15T04:12:40.019Z,75.27
2023-03-15T04:13:41.856Z,75.25
2023-03-15T04:14:44.825Z,75.34
2023-03-15T04:15:47.695Z,75.41
2023-03-15T04:16:51.886Z,75.26
2023-03-15T04:17:56.056Z,75.27
2023-03-15T04:19:00.816Z,75.60
2023-03-15T04:20:08.990Z,75.05
2023-03-15T04:21:14.170Z,75.33
2023-03-15T04:22:18.829Z,74.99
2023-03-15T04:23:40.143Z,75.39
2023-03-15T04:25:07.625Z,75.21
2023-03-15T04:26:26.540Z,75.19
2023-03-15T04:27:58.600Z,75.26
2023-03-15T04:29:19.886Z,75.29
2023-03-15T04:30:42.765Z,75.50
2023-03-15T04:32:01.674Z,75.64
2023-03-15T04:33:29.813Z,75.33
2023-03-15T04:34:51.550Z,75.88
2023-03-15T04:36:18.419Z,75.56
2023-03-15T04:37:42.484Z,75.25
2023-03-15T04:39:07.242Z,75.19
2023-03-15T04:40:20.782Z,75.36
2023-03-15T04:41:50.659Z,75.33
2023-03-15T04:43:17.027Z,75.52
2023-03-15T04:44:32.324Z,75.43
2023-03-15T04:46:01.392Z,75.61
2023-03-15T04:47:26.176Z,75.50
2023-03-15T04:48:36.247Z,75.08
2023-03-15T04:50:02.653Z,75.41
2023-03-15T04:51:23.753Z,75.12
2023-03-15T04:52:39.859Z,75.01
2023-03-15T04:54:10.101Z,74.96
2023-03-15T04:55:25.684Z,74.93
2023-03-15T04:56:36.600Z,74.89
2023-03-15T04:58:14.897Z,74.90
2023-03-15T04:59:25.289Z,74.82
2023-03-15T05:00:55.782Z,74.76
2023-03-15T05:02:12.929Z,74.81
2023-03-15T05:03:46.581Z,74.74
2023-03-15T05:05:23.910Z,74.67
2023-03-15T05:06:37.620Z,74.92
2023-03-15T05:07:57.691Z,75.28
2023-03-15T05:09:09.731Z,75.21
2023-03-15T05:10:38.749Z,74.82
2023-03-15T05:12:13.761Z,75.24
2023-03-15T05:13:34.156Z,75.13
2023-03-15T05:14:54.801Z,75.07
2023-03-15T05:16:16.503Z,75.12
2023-03-15T05:17:57.727Z,75.61
2023-03-15T05:19:20.258Z,75.62
2023-03-15T05:20:39.068Z,75.21
2023-03-15T05:22:00.423Z,75.38
2023-03-15T05:23:29.834Z,75.87
2023-03-15T05:24:57.825Z,75.27
2023-03-15T05:26:16.427Z,75.70
2023-03-15T05:27:39.343Z,75.85
2023-03-15T05:29:08.033Z,75.86
2023-03-15T05:30:21.588Z,75.79
2023-03-15T05:31:52.618Z,75.92
2023-03-15T05:32:55.724Z,75.52
2023-03-15T05:34:24.324Z,75.48
2023-03-15T05:35:37.765Z,75.92
2023-03-15T05:36:48.396Z,76.08
2023-03-15T05:38:14.531Z,75.88
2023-03-15T05:39:44.657Z,75.51
2023-03-15T05:41:06.489Z,75.68
2023-03-15T05:42:26.101Z,75.50
2023-03-15T05:43:57.800Z,76.16
2023-03-15T05:45:17.673Z,75.80
2023-03-15T05:46:37.204Z,76.04
2023-03-15T05:47:50.820Z,75.77
2023-03-15T05:49:08.332Z,75.52
2023-03-15T05:50:38.738Z,75.98
2023-03-15T05:52:16.326Z,75.68
2023-03-15T05:53:44.599Z,75.77
2023-03-15T05:55:07.998Z,76.03
2023-03-15T05:56:21.078Z,75.92
2023-03-15T05:57:51.469Z,75.45
2023-03-15T05:59:13.799Z,75.48
2023-03-15T06:00:35.547Z,75.48
2023-03-15T06:01:45.173Z,75.93
2023-03-15T06:02:55.932Z,75.68
2023-03-15T06:04:09.673Z,75.37
2023-03-15T06:05:12.836Z,75.31
2023-03-15T06:06:17.522Z,75.21
2023-03-15T06:07:21.244Z,75.72
2023-03-15T06:08:24.347Z,75.45
2023-03-15T06:09:26.316Z,75.67
2023-03-15T06:10:29.360Z,75.37
2023-03-15T06:11:34.051Z,75.52
2023-03-15T06:12:37.971Z,75.17
2023-03-15T06:13:40.132Z,75.23
2023-03-15T06:14:51.412Z,75.24
2023-03-15T06:15:53.265Z,75.41
2023-03-15T06:16:56.409Z,75.33
2023-03-15T06:18:01.129Z,75.48
2023-03-15T06:19:04.531Z,75.63
2023-03-15T06:20:07.821Z,75.18
2023-03-15T06:21:11.172Z,75.33
2023-03-15T06:22:14.450Z,75.18
2023-03-15T06:23:24.421Z,75.33
2023-03-15T06:24:26.521Z,75.07
2023-03-15T06:25:30.462Z,74.95
2023-03-15T06:26:32.530Z,75.28
2023-03-15T06:27:39.452Z,75.03
2023-03-15T06:28:41.659Z,74.76
2023-03-15T06:29:44.694Z,74.42
2023-03-15T06:30:47.105Z,74.65
2023-03-15T06:31:50.729Z,74.91
2023-03-15T06:32:53.701Z,74.94
2023-03-15T06:33:56.982Z,74.54
2023-03-15T06:35:00.626Z,74.24
2023-03-15T06:36:02.831Z,74.59
2023-03-15T06:37:05.845Z,74.31
2023-03-15T06:38:11.852Z,74.72
2023-03-15T06:39:14.836Z,74.77
2023-03-15T06:40:16.777Z,74.58
2023-03-15T06:41:21.306Z,74.22
2023-03-15T06:42:26.931Z,74.11
2023-03-15T06:43:30.977Z,73.69
2023-03-15T06:44:33.876Z,74.21
2023-03-15T06:45:40.625Z,74.17
2023-03-15T06:46:43.517Z,74.74
2023-03-15T06:47:45.282Z,73.84
2023-03-15T06:48:48.900Z,73.54
2023-03-15T06:49:51.248Z,73.65
2023-03-15T06:50:54.533Z,72.87
2023-03-15T06:51:56.768Z,72.98
2023-03-15T06:53:00.021Z,73.34
2023-03-15T06:54:04.762Z,73.23
2023-03-15T06:55:12.510Z,72.41
2023-03-15T06:56:16.535Z,72.77
2023-03-15T06:57:19.422Z,72.28
2023-03-15T06:58:22.215Z,72.59
2023-03-15T06:59:25.476Z,72.64
2023-03-15T07:00:27.384Z,71.80
2023-03-15T07:01:30.347Z,72.33
2023-03-15T07:02:37.496Z,72.74
2023-03-15T07:03:40.346Z,71.71
2023-03-15T07:04:42.135Z,72.25
2023-03-15T07:05:45.579Z,71.88
2023-03-15T07:06:47.357Z,71.21
2023-03-15T07:07:50.120Z,71.96
2023-03-15T07:08:52.066Z,71.00
2023-03-15T07:09:56.158Z,71.59
2023-03-15T07:10:58.976Z,71.32
2023-03-15T07:12:00.793Z,71.43
2023-03-15T07:13:05.052Z,71.36
2023-03-15T07:14:06.822Z,70.63
2023-03-15T07:15:10.896Z,70.88
2023-03-15T07:16:12.885Z,69.81
2023-03-15T07:17:15.692Z,70.75
2023-03-15T07:18:17.795Z,70.05
2023-03-15T07:19:20.529Z,70.47
2023-03-15T07:20:22.514Z,69.68
2023-03-15T07:21:25.672Z,69.88
2023-03-15T07:22:27.496Z,69.77
2023-03-15T07:23:30.440Z,69.48
2023-03-15T07:24:32.464Z,68.94
2023-03-15T07:25:52.066Z,68.71
2023-03-15T07:26:57.148Z,68.17
2023-03-15T07:27:59.030Z,68.32
2023-03-15T07:29:01.742Z,69.03
2023-03-15T07:30:04.499Z,69.26
2023-03-15T07:31:08.245Z,69.59
2023-03-15T07:32:10.590Z,68.78
2023-03-15T07:33:13.360Z,68.25
2023-03-15T07:34:16.293Z,68.20
2023-03-15T07:35:19.124Z,68.80
2023-03-15T07:36:22.279Z,69.09
2023-03-15T07:37:24.207Z,68.85
2023-03-15T07:38:29.198Z,69.46
2023-03-15T07:39:32.478Z,69.06
2023-03-15T07:40:36.627Z,69.56
2023-03-15T07:41:38.865Z,68.86
2023-03-15T07:42:49.866Z,68.84
2023-03-15T07:43:51.832Z,67.42
2023-03-15T07:44:54.583Z,68.09
2023-03-15T07:45:56.347Z,68.53
2023-03-15T07:46:59.309Z,67.96
2023-03-15T07:48:01.395Z,68.02
2023-03-15T07:49:04.181Z,67.59
2023-03-15T07:50:07.790Z,68.37
2023-03-15T07:51:10.605Z,67.88
2023-03-15T07:52:12.790Z,68.11
2023-03-15T07:53:15.802Z,68.29
2023-03-15T07:54:17.547Z,67.67
2023-03-15T07:55:20.313Z,68.00
2023-03-15T07:56:24.455Z,68.46
2023-03-15T07:57:28.957Z,68.07
2023-03-15T07:58:30.934Z,67.88
2023-03-15T07:59:33.744Z,67.46
2023-03-15T08:00:35.512Z,67.12
2023-03-15T08:01:38.351Z,67.12
2023-03-15T08:02:41.786Z,67.32
2023-03-15T08:03:44.705Z,67.24
2023-03-15T08:04:50.451Z,67.48
2023-03-15T08:05:53.430Z,67.94
2023-03-15T08:06:55.188Z,67.56
2023-03-15T08:07:58.354Z,67.45
2023-03-15T08:09:04.327Z,67.23
2023-03-15T08:10:07.296Z,66.74
2023-03-15T08:11:10.422Z,66.76
2023-03-15T08:12:13.973Z,67.61
2023-03-15T08:13:16.791Z,66.80
2023-03-15T08:14:18.779Z,67.41
2023-03-15T08:15:21.999Z,67.14
2023-03-15T08:16:23.788Z,65.95
2023-03-15T08:17:26.544Z,66.56
2023-03-15T08:18:29.786Z,65.75
2023-03-15T08:19:32.501Z,65.74
2023-03-15T08:20:34.290Z,65.76
2023-03-15T08:21:37.125Z,64.67
2023-03-15T08:22:39.002Z,65.64
2023-03-15T08:23:41.943Z,65.79
2023-03-15T08:24:45.448Z,64.83
2023-03-15T08:25:48.515Z,65.24
2023-03-15T08:26:51.213Z,65.31
2023-03-15T08:27:55.566Z,65.16
2023-03-15T08:28:57.349Z,64.66
2023-03-15T08:30:00.118Z,63.63
2023-03-15T08:31:07.645Z,63.11
2023-03-15T08:32:10.840Z,63.37
2023-03-15T08:33:12.739Z,63.72
2023-03-15T08:34:16.112Z,63.71
2023-03-15T08:35:19.286Z,63.82
2023-03-15T08:36:22.210Z,64.40
2023-03-15T08:37:24.288Z,64.80
2023-03-15T08:38:27.326Z,64.53
2023-03-15T08:39:29.193Z,65.18
2023-03-15T08:40:32.494Z,64.76
2023-03-15T08:41:35.546Z,64.68
2023-03-15T08:42:37.902Z,64.57
2023-03-15T08:43:42.041Z,63.89
2023-03-15T08:44:43.877Z,63.49
2023-03-15T08:46:00.081Z,64.12
2023-03-15T08:47:05.097Z,63.44
2023-03-15T08:48:14.435Z,64.04
2023-03-15T08:49:17.167Z,64.14
2023-03-15T08:50:19.588Z,65.50
2023-03-15T08:51:25.347Z,64.57
2023-03-15T08:52:28.298Z,63.91
2023-03-15T08:53:31.949Z,62.68
2023-03-15T08:54:33.773Z,61.91
2023-03-15T08:55:36.802Z,63.50
2023-03-15T08:56:40.034Z,62.60
2023-03-15T08:57:42.376Z,61.66
2023-03-15T08:58:46.832Z,62.95
2023-03-15T08:59:48.789Z,62.78
2023-03-15T09:00:51.694Z,62.48
2023-03-15T09:01:53.554Z,62.37
2023-03-15T09:02:56.761Z,61.97
2023-03-15T09:03:58.584Z,62.11
2023-03-15T09:05:01.356Z,61.44
2023-03-15T09:06:04.479Z,62.20
2023-03-15T09:07:06.247Z,62.33
2023-03-15T09:08:09.236Z,62.26
2023-03-15T09:09:11.511Z,62.49
2023-03-15T09:10:15.689Z,61.08
2023-03-15T09:11:17.534Z,61.48
2023-03-15T09:12:20.397Z,61.57
2023-03-15T09:13:22.351Z,61.77
2023-03-15T09:14:26.471Z,62.23
2023-03-15T09:15:28.562Z,60.76
2023-03-15T09:16:31.391Z,60.28
2023-03-15T09:17:33.119Z,61.43
2023-03-15T09:18:35.977Z,60.09
2023-03-15T09:19:37.816Z,60.36
2023-03-15T09:20:41.214Z,61.52
2023-03-15T09:21:45.073Z,61.44
2023-03-15T09:22:50.849Z,61.20
2023-03-15T09:23:53.656Z,61.31
2023-03-15T09:24:55.565Z,61.20
2023-03-15T09:25:58.321Z,60.88
2023-03-15T09:27:00.104Z,61.05
2023-03-15T09:28:03.127Z,60.34
2023-03-15T09:29:05.239Z,60.83
2023-03-15T09:30:11.100Z,61.69
2023-03-15T09:31:13.988Z,60.13
2023-03-15T09:32:15.903Z,60.08
2023-03-15T09:33:18.634Z,61.40
2023-03-15T09:34:21.786Z,60.52
2023-03-15T09:35:24.703Z,60.15
2023-03-15T09:36:27.503Z,59.67
2023-03-15T09:37:29.735Z,60.34
2023-03-15T09:38:32.787Z,59.13
2023-03-15T09:39:34.581Z,59.54
2023-03-15T09:40:40.670Z,59.82
2023-03-15T09:41:45.721Z,60.53
2023-03-15T09:42:55.961Z,60.29
2023-03-15T09:44:11.851Z,59.50
2023-03-15T09:45:19.713Z,59.48
2023-03-15T09:46:28.190Z,59.79
2023-03-15T09:47:39.435Z,59.42
2023-03-15T09:48:49.893Z,58.85
2023-03-15T09:49:55.996Z,58.03
2023-03-15T09:51:01.857Z,58.08
2023-03-15T09:52:10.041Z,59.24
2023-03-15T09:53:15.573Z,60.00
2023-03-15T09:54:23.750Z,59.59
2023-03-15T09:55:27.320Z,59.18
2023-03-15T09:56:33.101Z,59.16
2023-03-15T09:57:41.051Z,58.65
2023-03-15T09:58:43.061Z,58.16
2023-03-15T09:59:48.156Z,58.99
2023-03-15T10:00:53.880Z,58.97
2023-03-15T10:01:57.695Z,59.19
2023-03-15T10:03:06.853Z,58.44
2023-03-15T10:04:12.886Z,59.01
2023-03-15T10:05:18.966Z,57.30
2023-03-15T10:06:24.338Z,57.10
2023-03-15T10:07:27.233Z,58.06
2023-03-15T10:08:29.334Z,56.72
2023-03-15T10:09:34.441Z,57.97
2023-03-15T10:10:41.488Z,57.57
2023-03-15T10:11:48.326Z,56.90
2023-03-15T10:12:57.354Z,57.69
2023-03-15T10:14:08.734Z,57.16
2023-03-15T10:15:30.792Z,58.82
2023-03-15T10:16:41.716Z,58.11
2023-03-15T10:17:48.936Z,57.49
2023-03-15T10:19:03.814Z,58.17
2023-03-15T10:20:09.586Z,57.48
2023-03-15T10:21:14.529Z,57.54
2023-03-15T10:22:23.742Z,57.55
2023-03-15T10:23:34.294Z,58.06
2023-03-15T10:24:39.628Z,57.78
2023-03-15T10:25:42.584Z,57.22
2023-03-15T10:27:55.219Z,56.88
2023-03-15T10:28:57.358Z,56.23
2023-03-15T10:30:20.362Z,56.58
2023-03-15T10:31:41.091Z,57.57
2023-03-15T10:32:52.878Z,57.90
2023-03-15T10:33:56.193Z,57.05
2023-03-15T10:34:59.446Z,56.79
2023-03-15T10:36:11.145Z,57.21
2023-03-15T10:37:14.356Z,56.45
2023-03-15T10:38:17.409Z,56.28
2023-03-15T10:39:19.676Z,55.62
2023-03-15T10:40:44.303Z,54.32
2023-03-15T10:41:48.684Z,54.93
2023-03-15T10:42:51.517Z,55.50
2023-03-15T10:44:00.157Z,55.64
2023-03-15T10:45:19.388Z,56.50
2023-03-15T10:46:24.052Z,55.91
2023-03-15T10:47:27.912Z,56.47
2023-03-15T10:48:32.195Z,56.50
2023-03-15T10:49:36.638Z,56.14
2023-03-15T10:50:40.660Z,56.35
2023-03-15T10:51:45.207Z,56.09
2023-03-15T10:52:50.406Z,56.50
2023-03-15T10:53:57.178Z,56.84
2023-03-15T10:55:04.404Z,55.20
2023-03-15T10:56:09.784Z,54.36
2023-03-15T10:57:14.796Z,54.22
2023-03-15T10:58:25.776Z,55.28
2023-03-15T10:59:30.699Z,55.11
2023-03-15T11:00:33.790Z,55.06
2023-03-15T11:01:37.474Z,55.44
2023-03-15T11:02:49.511Z,55.12
2023-03-15T11:04:05.783Z,54.77
2023-03-15T11:05:17.653Z,54.46
2023-03-15T11:06:21.732Z,54.21
2023-03-15T11:07:24.541Z,54.67
2023-03-15T11:08:37.225Z,54.51
2023-03-15T11:09:41.625Z,53.20
2023-03-15T11:10:44.391Z,53.66
2023-03-15T11:11:56.255Z,53.73
2023-03-15T11:13:20.571Z,52.59
2023-03-15T11:14:23.504Z,53.51
2023-03-15T11:15:25.339Z,54.03
2023-03-15T11:16:28.234Z,52.84
2023-03-15T11:17:34.063Z,53.41
2023-03-15T11:18:38.711Z,53.88
2023-03-15T11:19:55.804Z,53.40
2023-03-15T11:20:58.411Z,53.23
2023-03-15T11:22:02.298Z,53.13
2023-03-15T11:23:14.016Z,53.22
2023-03-15T11:24:24.072Z,53.11
2023-03-15T11:25:31.372Z,54.05
2023-03-15T11:26:36.062Z,53.91
2023-03-15T11:27:38.023Z,53.80
2023-03-15T11:28:44.810Z,54.13
2023-03-15T11:29:50.157Z,52.95
2023-03-15T11:30:52.109Z,53.46
2023-03-15T11:31:55.573Z,53.02
2023-03-15T11:33:01.035Z,53.95
2023-03-15T11:34:06.527Z,53.62
2023-03-15T11:35:14.024Z,52.49
2023-03-15T11:36:18.360Z,51.57
2023-03-15T11:37:23.106Z,51.06
2023-03-15T11:38:33.344Z,51.80
2023-03-15T11:39:40.203Z,50.53
2023-03-15T11:40:45.297Z,51.44
2023-03-15T11:41:52.509Z,52.65
2023-03-15T11:42:57.694Z,50.46
2023-03-15T11:44:08.230Z,51.58
2023-03-15T11:45:17.097Z,51.05
2023-03-15T11:46:25.928Z,51.95
2023-03-15T11:47:38.444Z,49.90
2023-03-15T11:48:45.964Z,51.58
2023-03-15T11:49:51.089Z,51.17
2023-03-15T11:50:55.559Z,51.64
2023-03-15T11:51:57.688Z,50.79
2023-03-15T11:53:03.869Z,50.81
2023-03-15T11:54:09.809Z,51.44
2023-03-15T11:55:18.951Z,51.05
2023-03-15T11:56:23.690Z,50.45
2023-03-15T11:57:53.402Z,49.03
2023-03-15T11:59:08.697Z,50.79
2023-03-15T12:00:47.910Z,49.54
2023-03-15T12:01:52.277Z,51.82
2023-03-15T12:02:55.871Z,51.14
2023-03-15T12:04:49.621Z,49.62
2023-03-15T12:05:52.357Z,50.18
2023-03-15T12:06:57.239Z,51.33
2023-03-15T12:08:01.014Z,51.39
2023-03-15T12:09:04.917Z,50.48
2023-03-15T12:10:31.799Z,51.62
2023-03-15T12:11:39.410Z,50.26
2023-03-15T12:12:46.842Z,51.28
2023-03-15T12:13:55.786Z,51.13
2023-03-15T12:15:08.398Z,50.77
2023-03-15T12:16:12.516Z,51.12
2023-03-15T12:17:37.816Z,50.79
2023-03-15T12:18:44.694Z,50.82
2023-03-15T12:19:46.980Z,49.46
2023-03-15T12:20:59.396Z,50.08
2023-03-15T12:22:03.947Z,50.59
2023-03-15T12:23:19.147Z,49.79
2023-03-15T12:24:24.214Z,50.48
2023-03-15T12:25:33.855Z,50.60
2023-03-15T12:26:41.617Z,50.57
2023-03-15T12:27:48.292Z,51.06
2023-03-15T12:28:53.690Z,51.37
2023-03-15T12:30:00.947Z,51.65
2023-03-15T12:31:04.709Z,51.17
2023-03-15T12:32:10.796Z,50.87
2023-03-15T12:33:15.502Z,48.81
2023-03-15T12:34:28.755Z,48.01
2023-03-15T12:35:38.145Z,48.83
2023-03-15T12:36:42.460Z,47.53
2023-03-15T12:37:47.777Z,48.39
2023-03-15T12:39:01.377Z,47.92
2023-03-15T12:40:42.754Z,48.75
2023-03-15T12:41:46.750Z,50.04
2023-03-15T12:43:04.409Z,50.34
2023-03-15T12:44:38.823Z,50.25
2023-03-15T12:45:46.548Z,49.16
2023-03-15T12:46:57.979Z,48.45
2023-03-15T12:48:22.027Z,49.97
2023-03-15T12:49:42.721Z,49.27
2023-03-15T12:50:52.781Z,49.63
2023-03-15T12:51:59.368Z,50.01
2023-03-15T12:53:06.068Z,47.74
2023-03-15T12:54:10.792Z,49.59
2023-03-15T12:55:17.158Z,49.20
2023-03-15T12:56:44.336Z,48.41
2023-03-15T12:57:49.691Z,49.65
2023-03-15T12:58:54.565Z,49.95
2023-03-15T12:59:59.645Z,49.87
2023-03-15T13:01:02.979Z,49.73
2023-03-15T13:02:41.726Z,49.14
2023-03-15T13:03:45.902Z,50.24
2023-03-15T13:04:49.867Z,49.89
2023-03-15T13:06:03.904Z,50.71
2023-03-15T13:07:18.757Z,50.44
2023-03-15T13:08:25.532Z,50.04
2023-03-15T13:10:08.963Z,50.04
2023-03-15T13:11:18.826Z,50.45
2023-03-15T13:12:24.613Z,50.47
2023-03-15T13:13:46.029Z,49.68
2023-03-15T13:15:10.744Z,50.58
2023-03-15T13:16:22.181Z,50.50
2023-03-15T13:17:36.791Z,50.66
2023-03-15T13:18:46.937Z,50.22
2023-03-15T13:19:55.820Z,51.69
2023-03-15T13:21:07.706Z,50.51
2023-03-15T13:22:16.035Z,50.60
2023-03-15T13:23:21.229Z,51.26
2023-03-15T13:24:36.303Z,50.57
2023-03-15T13:25:43.959Z,50.71
2023-03-15T13:26:52.508Z,51.62
2023-03-15T13:27:55.753Z,51.73
2023-03-15T13:29:01.470Z,51.14
2023-03-15T13:30:22.578Z,51.73
2023-03-15T13:31:25.872Z,51.24
2023-03-15T13:32:28.741Z,51.24
2023-03-15T13:33:31.441Z,51.40
2023-03-15T13:34:34.574Z,50.33
2023-03-15T13:35:42.728Z,51.21
2023-03-15T13:36:47.235Z,51.63
2023-03-15T13:37:49.041Z,51.86
2023-03-15T13:38:53.278Z,51.33
2023-03-15T13:40:00.336Z,51.18
2023-03-15T13:41:05.358Z,51.87
2023-03-15T13:42:18.936Z,51.27
2023-03-15T13:43:20.964Z,51.48
2023-03-15T13:44:25.192Z,50.80
2023-03-15T13:45:26.982Z,50.46
2023-03-15T13:46:31.695Z,50.82
2023-03-15T13:47:34.492Z,50.65
2023-03-15T13:48:41.324Z,50.64
2023-03-15T13:50:03.942Z,50.62
2023-03-15T13:51:08.070Z,51.12
2023-03-15T13:52:14.734Z,51.85
2023-03-15T13:53:19.207Z,50.99
2023-03-15T13:54:26.296Z,50.96
2023-03-15T13:55:33.635Z,50.72
2023-03-15T13:56:48.844Z,51.14
2023-03-15T13:57:55.868Z,51.09
2023-03-15T13:58:57.930Z,51.06
2023-03-15T14:00:02.127Z,50.66
2023-03-15T14:01:09.442Z,51.07
2023-03-15T14:02:14.208Z,50.75
2023-03-15T14:03:22.324Z,50.84
2023-03-15T14:04:26.508Z,51.57
2023-03-15T14:05:29.671Z,52.21
2023-03-15T14:06:32.593Z,51.82
2023-03-15T14:07:37.083Z,51.97
2023-03-15T14:08:40.513Z,51.67
2023-03-15T14:09:43.324Z,51.67
2023-03-15T14:10:58.830Z,51.97
2023-03-15T14:12:02.734Z,52.40
2023-03-15T14:13:23.943Z,51.57
2023-03-15T14:14:28.625Z,52.10
2023-03-15T14:15:36.765Z,51.99
2023-03-15T14:17:01.104Z,51.67
2023-03-15T14:18:17.031Z,52.04
2023-03-15T14:19:21.239Z,51.68
2023-03-15T14:20:29.601Z,52.03
2023-03-15T14:21:33.420Z,51.94
2023-03-15T14:22:36.003Z,51.94
2023-03-15T14:23:41.519Z,52.14
2023-03-15T14:24:45.394Z,50.95
2023-03-15T14:25:52.916Z,49.91
2023-03-15T14:26:58.419Z,50.55
2023-03-15T14:28:01.617Z,49.91